Time;durP1;ratioP1;P1;durP2;ratioP2;P2;SDS_P1;SDS_P2;PMS_P1;PMS_P2;Temp;Humidity;BMP_temperature;BMP_pressure;BME280_temperature;BME280_humidity;BME280_pressure;Samples;Min_cycle;Max_cycle;Signal;HPM_P1;HPM_P2
2022/10/31 00:01:01;;;;;;;8.20;6.10;;;;;;;;;;105369;1304;22533;-28
2022/10/31 00:03:48;;;;;;;8.00;6.10;;;;;;;;;;105376;1294;23692;-28
2022/10/31 00:06:20;;;;;;;8.50;5.80;;;;;;;;;;105346;1297;22483;-28
2022/10/31 00:09:01;;;;;;;7.30;5.50;;;;;;;;;;105365;1290;22482;-28
2022/10/31 00:11:34;;;;;;;8.70;5.90;;;;;;;;;;105385;1295;23874;-28
2022/10/31 00:14:07;;;;;;;9.50;5.90;;;;;;;;;;105387;1306;25282;-28
2022/10/31 00:16:40;;;;;;;8.00;6.30;;;;;;;;;;105354;1300;22477;-28
2022/10/31 00:19:12;;;;;;;7.40;5.60;;;;;;;;;;105389;1304;22609;-28
2022/10/31 00:21:44;;;;;;;7.60;5.70;;;;;;;;;;105377;1300;22471;-28
2022/10/31 00:24:19;;;;;;;7.40;5.50;;;;;;;;;;105388;1291;21644;-28
2022/10/31 00:26:51;;;;;;;8.10;5.70;;;;;;;;;;105360;1300;23796;-28
2022/10/31 00:29:24;;;;;;;7.50;5.60;;;;;;;;;;105368;1292;21822;-28
2022/10/31 00:31:57;;;;;;;7.60;6.00;;;;;;;;;;105401;1300;22499;-28
2022/10/31 00:34:29;;;;;;;7.70;5.70;;;;;;;;;;105375;1290;22477;-28
2022/10/31 00:37:01;;;;;;;7.30;5.60;;;;;;;;;;105319;1294;25359;-28
2022/10/31 00:39:35;;;;;;;7.50;5.30;;;;;;;;;;105388;1291;22476;-28
2022/10/31 00:42:07;;;;;;;7.00;5.40;;;;;;;;;;105371;1298;22485;-28
2022/10/31 00:44:39;;;;;;;7.10;5.70;;;;;;;;;;105398;1298;22470;-28
2022/10/31 00:47:11;;;;;;;7.70;5.70;;;;;;;;;;105336;1298;22522;-28
2022/10/31 00:49:44;;;;;;;6.80;5.20;;;;;;;;;;105361;1301;22485;-28
2022/10/31 00:52:16;;;;;;;6.80;5.50;;;;;;;;;;105403;1298;22465;-28
2022/10/31 00:54:48;;;;;;;7.30;5.30;;;;;;;;;;105382;1298;22465;-28
2022/10/31 00:57:20;;;;;;;6.60;5.30;;;;;;;;;;105337;1291;23771;-28
2022/10/31 00:59:55;;;;;;;6.90;5.30;;;;;;;;;;105414;1291;22507;-28
2022/10/31 01:02:29;;;;;;;7.20;5.30;;;;;;;;;;105360;1294;22460;-28
2022/10/31 01:05:01;;;;;;;6.60;5.00;;;;;;;;;;105373;1292;22518;-28
2022/10/31 01:07:36;;;;;;;7.10;5.20;;;;;;;;;;105338;1300;23830;-28
2022/10/31 01:10:10;;;;;;;8.00;5.70;;;;;;;;;;105398;1302;22491;-28
2022/10/31 01:12:43;;;;;;;6.80;5.20;;;;;;;;;;105404;1300;22485;-28
2022/10/31 01:15:18;;;;;;;6.40;5.10;;;;;;;;;;105368;1305;23852;-28
2022/10/31 01:17:50;;;;;;;7.00;5.40;;;;;;;;;;105378;1299;22553;-28
2022/10/31 01:20:23;;;;;;;7.60;5.40;;;;;;;;;;105395;1300;25204;-28
2022/10/31 01:22:55;;;;;;;7.20;5.40;;;;;;;;;;105368;1291;22598;-28
2022/10/31 01:25:27;;;;;;;6.90;5.40;;;;;;;;;;105361;1294;22691;-28
2022/10/31 01:27:59;;;;;;;7.50;5.80;;;;;;;;;;105338;1304;24743;-28
2022/10/31 01:30:31;;;;;;;7.10;5.50;;;;;;;;;;105376;1291;25440;-28
2022/10/31 01:33:04;;;;;;;7.10;5.20;;;;;;;;;;105364;1298;22519;-28
2022/10/31 01:35:36;;;;;;;7.70;5.40;;;;;;;;;;105393;1298;22471;-28
2022/10/31 01:38:10;;;;;;;7.30;5.70;;;;;;;;;;105370;1304;22611;-28
2022/10/31 01:40:42;;;;;;;6.80;5.40;;;;;;;;;;105387;1284;22462;-28
2022/10/31 01:43:16;;;;;;;8.20;5.70;;;;;;;;;;105371;1285;22518;-30
2022/10/31 01:45:55;;;;;;;7.10;5.70;;;;;;;;;;105411;1291;23738;-30
2022/10/31 01:48:31;;;;;;;8.00;5.50;;;;;;;;;;105375;1292;22531;-28
2022/10/31 01:51:04;;;;;;;7.30;5.80;;;;;;;;;;105378;1291;22482;-28
2022/10/31 01:53:38;;;;;;;7.80;5.60;;;;;;;;;;105393;1298;25378;-28
2022/10/31 01:56:12;;;;;;;7.60;5.50;;;;;;;;;;105388;1297;22522;-28
2022/10/31 01:58:44;;;;;;;7.40;5.80;;;;;;;;;;105394;1297;22893;-28
2022/10/31 02:01:17;;;;;;;7.40;5.80;;;;;;;;;;105377;1301;22471;-28
2022/10/31 02:03:48;;;;;;;;;;;;;;;;;;105394;1300;22459;-28
2022/10/31 02:06:34;;;;;;;7.40;5.30;;;;;;;;;;105395;1293;22467;-28
2022/10/31 02:09:08;;;;;;;6.60;5.40;;;;;;;;;;105352;1301;22492;-30
2022/10/31 02:11:40;;;;;;;7.20;5.60;;;;;;;;;;105360;1305;22479;-30
2022/10/31 02:14:12;;;;;;;7.50;5.80;;;;;;;;;;105394;1294;23617;-30
2022/10/31 02:16:45;;;;;;;7.20;6.20;;;;;;;;;;105384;1294;25170;-30
2022/10/31 02:19:27;;;;;;;8.00;5.60;;;;;;;;;;105352;1298;22478;-30
2022/10/31 02:22:06;;;;;;;6.80;5.10;;;;;;;;;;105370;1287;22470;-30
2022/10/31 02:24:56;;;;;;;7.80;5.90;;;;;;;;;;105383;1291;22669;-30
2022/10/31 02:27:56;;;;;;;7.50;5.30;;;;;;;;;;105410;1290;22484;-30
2022/10/31 02:30:38;;;;;;;6.90;5.50;;;;;;;;;;105315;1298;22481;-28
2022/10/31 02:33:23;;;;;;;6.80;5.20;;;;;;;;;;105365;1297;22482;-28
2022/10/31 02:36:09;;;;;;;7.10;5.40;;;;;;;;;;105370;1303;22505;-28
2022/10/31 02:38:55;;;;;;;7.20;5.20;;;;;;;;;;105356;1296;25205;-28
2022/10/31 02:41:36;;;;;;;6.60;5.40;;;;;;;;;;105371;1304;22462;-28
2022/10/31 02:44:17;;;;;;;6.90;5.40;;;;;;;;;;105384;1304;22483;-28
2022/10/31 02:46:55;;;;;;;7.60;5.10;;;;;;;;;;105400;1298;23775;-28
2022/10/31 02:49:38;;;;;;;6.00;5.00;;;;;;;;;;105325;1291;22488;-28
2022/10/31 02:52:23;;;;;;;6.60;4.90;;;;;;;;;;105376;1304;22490;-28
2022/10/31 02:54:58;;;;;;;6.50;5.10;;;;;;;;;;105404;1304;25242;-28
2022/10/31 02:57:34;;;;;;;6.00;4.90;;;;;;;;;;105378;1304;22554;-28
2022/10/31 03:00:12;;;;;;;7.10;5.00;;;;;;;;;;105346;1285;23911;-28
2022/10/31 03:03:13;;;;;;;6.60;4.80;;;;;;;;;;105392;1298;23849;-28
2022/10/31 03:05:56;;;;;;;;;;;;;;;;;;105318;1297;25359;-28
2022/10/31 03:08:35;;;;;;;7.00;5.20;;;;;;;;;;105385;1299;22471;-28
2022/10/31 03:11:10;;;;;;;6.60;5.20;;;;;;;;;;105323;1297;25361;-28
2022/10/31 03:13:49;;;;;;;6.30;4.80;;;;;;;;;;105372;1298;22463;-28
2022/10/31 03:16:38;;;;;;;7.00;5.10;;;;;;;;;;105399;1297;25366;-28
2022/10/31 03:19:14;;;;;;;7.40;5.00;;;;;;;;;;105340;1292;25366;-28
2022/10/31 03:21:51;;;;;;;6.60;5.00;;;;;;;;;;105329;1296;22846;-28
2022/10/31 03:24:28;;;;;;;7.10;5.00;;;;;;;;;;105394;1297;25250;-28
2022/10/31 03:27:03;;;;;;;5.90;4.80;;;;;;;;;;105381;1304;22489;-28
2022/10/31 03:29:39;;;;;;;7.80;5.10;;;;;;;;;;105396;1292;22496;-28
2022/10/31 03:32:16;;;;;;;6.90;5.00;;;;;;;;;;105324;1295;22719;-28
2022/10/31 03:34:50;;;;;;;6.50;4.70;;;;;;;;;;105375;1292;22482;-28
2022/10/31 03:37:26;;;;;;;6.40;5.10;;;;;;;;;;105350;1293;22468;-28
2022/10/31 03:40:00;;;;;;;7.40;5.30;;;;;;;;;;105400;1299;22484;-28
2022/10/31 03:42:35;;;;;;;6.20;4.70;;;;;;;;;;105098;1304;338331;-28
2022/10/31 03:45:14;;;;;;;6.90;5.00;;;;;;;;;;105376;1311;22475;-28
2022/10/31 03:47:47;;;;;;;6.40;5.00;;;;;;;;;;105386;1304;22582;-28
2022/10/31 03:50:21;;;;;;;6.40;5.00;;;;;;;;;;105369;1298;22520;-28
2022/10/31 03:52:58;;;;;;;6.30;5.20;;;;;;;;;;105303;1292;22472;-28
2022/10/31 03:55:38;;;;;;;6.70;4.70;;;;;;;;;;105383;1302;22478;-28
2022/10/31 03:58:17;;;;;;;6.30;4.90;;;;;;;;;;105380;1301;22467;-28
2022/10/31 04:00:51;;;;;;;6.30;5.10;;;;;;;;;;105343;1295;22521;-28
2022/10/31 04:03:29;;;;;;;6.80;4.80;;;;;;;;;;105345;1298;22464;-28
2022/10/31 04:06:06;;;;;;;6.40;5.00;;;;;;;;;;105371;1304;22508;-27
2022/10/31 04:08:45;;;;;;;6.30;4.80;;;;;;;;;;105359;1306;22452;-28
2022/10/31 04:11:22;;;;;;;6.20;4.60;;;;;;;;;;105354;1290;22455;-28
2022/10/31 04:13:57;;;;;;;6.40;5.00;;;;;;;;;;105396;1284;25825;-28
2022/10/31 04:16:29;;;;;;;6.10;4.70;;;;;;;;;;105375;1292;22489;-28
2022/10/31 04:19:02;;;;;;;6.30;4.80;;;;;;;;;;105388;1294;24297;-28
2022/10/31 04:21:34;;;;;;;5.90;4.40;;;;;;;;;;105362;1296;22473;-28
2022/10/31 04:24:07;;;;;;;6.40;4.70;;;;;;;;;;105378;1300;22469;-28
2022/10/31 04:26:40;;;;;;;6.40;4.70;;;;;;;;;;105392;1292;22482;-28
2022/10/31 04:29:12;;;;;;;6.00;4.60;;;;;;;;;;105304;1294;22439;-28
2022/10/31 04:31:44;;;;;;;5.70;4.50;;;;;;;;;;105338;1297;22477;-28
2022/10/31 04:34:16;;;;;;;5.60;4.50;;;;;;;;;;105397;1274;23885;-28
2022/10/31 04:36:49;;;;;;;6.10;4.80;;;;;;;;;;105390;1298;23757;-28
2022/10/31 04:39:23;;;;;;;6.20;4.70;;;;;;;;;;105373;1299;23993;-28
2022/10/31 04:41:55;;;;;;;5.50;4.80;;;;;;;;;;105335;1289;22479;-28
2022/10/31 04:44:28;;;;;;;5.70;4.40;;;;;;;;;;105392;1297;25294;-28
2022/10/31 04:47:02;;;;;;;6.60;4.80;;;;;;;;;;105364;1301;21693;-28
2022/10/31 04:49:35;;;;;;;6.00;4.50;;;;;;;;;;105370;1296;22482;-27
2022/10/31 04:52:08;;;;;;;5.90;4.60;;;;;;;;;;105352;1297;22511;-28
2022/10/31 04:54:38;;;;;;;;;;;;;;;;;;105442;1304;25220;-28
2022/10/31 04:57:10;;;;;;;5.90;4.60;;;;;;;;;;105375;1291;22471;-28
2022/10/31 04:59:42;;;;;;;6.10;4.60;;;;;;;;;;105359;1291;22465;-28
2022/10/31 05:02:14;;;;;;;5.70;4.30;;;;;;;;;;105333;1297;22476;-28
2022/10/31 05:04:47;;;;;;;6.00;4.50;;;;;;;;;;105368;1304;22549;-28
2022/10/31 05:07:19;;;;;;;6.20;4.60;;;;;;;;;;105374;1299;24375;-28
2022/10/31 05:09:51;;;;;;;6.10;5.00;;;;;;;;;;105413;1297;22527;-28
2022/10/31 05:12:26;;;;;;;6.80;4.50;;;;;;;;;;105359;1296;22472;-28
2022/10/31 05:14:58;;;;;;;6.20;4.40;;;;;;;;;;105384;1297;22499;-28
2022/10/31 05:17:30;;;;;;;6.30;4.40;;;;;;;;;;105374;1298;23747;-28
2022/10/31 05:20:02;;;;;;;5.50;4.30;;;;;;;;;;105382;1295;23676;-28
2022/10/31 05:22:34;;;;;;;5.90;4.40;;;;;;;;;;105369;1291;22480;-28
2022/10/31 05:25:10;;;;;;;6.10;4.20;;;;;;;;;;105401;1294;22494;-28
2022/10/31 05:27:45;;;;;;;5.80;4.40;;;;;;;;;;105405;1298;25342;-28
2022/10/31 05:30:21;;;;;;;5.70;4.50;;;;;;;;;;105389;1304;22476;-28
2022/10/31 05:32:54;;;;;;;5.60;4.30;;;;;;;;;;105353;1298;25258;-28
2022/10/31 05:35:26;;;;;;;;;;;;;;;;;;105404;1291;22451;-28
2022/10/31 05:38:00;;;;;;;6.50;4.50;;;;;;;;;;105409;1301;22485;-28
2022/10/31 05:40:32;;;;;;;5.90;4.30;;;;;;;;;;105349;1282;25218;-28
2022/10/31 05:43:04;;;;;;;6.30;4.50;;;;;;;;;;105362;1301;25220;-28
2022/10/31 05:45:36;;;;;;;5.50;4.40;;;;;;;;;;105382;1292;22476;-28
2022/10/31 05:48:10;;;;;;;5.60;4.10;;;;;;;;;;105364;1294;22513;-28
2022/10/31 05:50:42;;;;;;;5.60;4.30;;;;;;;;;;105377;1292;22750;-28
2022/10/31 05:53:14;;;;;;;5.80;4.20;;;;;;;;;;105360;1297;22523;-28
2022/10/31 05:55:47;;;;;;;6.30;4.40;;;;;;;;;;105383;1289;22456;-28
2022/10/31 05:58:19;;;;;;;5.80;4.40;;;;;;;;;;105384;1301;22795;-28
2022/10/31 06:00:54;;;;;;;5.60;4.30;;;;;;;;;;105387;1298;22483;-28
2022/10/31 06:03:26;;;;;;;5.80;4.10;;;;;;;;;;105340;1285;22459;-28
2022/10/31 06:05:58;;;;;;;5.60;4.30;;;;;;;;;;105361;1301;25394;-28
2022/10/31 06:08:30;;;;;;;5.60;4.20;;;;;;;;;;105379;1299;22495;-28
2022/10/31 06:11:03;;;;;;;6.10;4.40;;;;;;;;;;105374;1292;23733;-28
2022/10/31 06:13:35;;;;;;;5.70;4.20;;;;;;;;;;105400;1298;22467;-28
2022/10/31 06:16:08;;;;;;;5.50;4.30;;;;;;;;;;105260;1306;22481;-28
2022/10/31 06:18:40;;;;;;;6.10;4.30;;;;;;;;;;105326;1302;22565;-28
2022/10/31 06:21:13;;;;;;;6.60;4.40;;;;;;;;;;105289;1300;22482;-28
2022/10/31 06:23:47;;;;;;;5.80;4.20;;;;;;;;;;105250;1297;23867;-28
2022/10/31 06:26:20;;;;;;;6.30;4.80;;;;;;;;;;105318;1283;22510;-28
2022/10/31 06:28:52;;;;;;;5.90;4.00;;;;;;;;;;105379;1298;22499;-28
2022/10/31 06:31:24;;;;;;;6.20;4.60;;;;;;;;;;105387;1283;23944;-28
2022/10/31 06:33:56;;;;;;;5.60;4.30;;;;;;;;;;105368;1304;22481;-28
2022/10/31 06:36:28;;;;;;;6.60;4.10;;;;;;;;;;105341;1299;22489;-28
2022/10/31 06:39:00;;;;;;;6.30;4.40;;;;;;;;;;105382;1298;22505;-28
2022/10/31 06:41:32;;;;;;;5.70;4.20;;;;;;;;;;105370;1292;22501;-29
2022/10/31 06:44:06;;;;;;;6.60;4.50;;;;;;;;;;105386;1280;22469;-28
2022/10/31 06:46:38;;;;;;;5.90;4.30;;;;;;;;;;105342;1304;22501;-28
2022/10/31 06:49:10;;;;;;;6.00;4.20;;;;;;;;;;105378;1307;22537;-28
2022/10/31 06:51:43;;;;;;;5.70;4.20;;;;;;;;;;105385;1285;22475;-28
2022/10/31 06:54:15;;;;;;;6.10;4.30;;;;;;;;;;105426;1288;23845;-28
2022/10/31 06:56:49;;;;;;;6.80;5.00;;;;;;;;;;105354;1300;22463;-28
2022/10/31 06:59:23;;;;;;;6.10;4.70;;;;;;;;;;105392;1301;22529;-28
2022/10/31 07:01:56;;;;;;;6.50;4.80;;;;;;;;;;105379;1277;22483;-28
2022/10/31 07:04:28;;;;;;;5.70;4.40;;;;;;;;;;105368;1300;23795;-28
2022/10/31 07:07:00;;;;;;;7.10;4.80;;;;;;;;;;105354;1300;22615;-28
2022/10/31 07:09:35;;;;;;;7.60;5.00;;;;;;;;;;105356;1284;22478;-28
2022/10/31 07:12:09;;;;;;;7.70;4.70;;;;;;;;;;105395;1298;22578;-28
2022/10/31 07:14:42;;;;;;;8.00;4.90;;;;;;;;;;105397;1292;22581;-28
2022/10/31 07:17:15;;;;;;;6.80;4.70;;;;;;;;;;105359;1299;22484;-28
2022/10/31 07:19:48;;;;;;;6.70;5.00;;;;;;;;;;105393;1302;25366;-28
2022/10/31 07:22:20;;;;;;;7.10;5.30;;;;;;;;;;105373;1301;25848;-28
2022/10/31 07:24:54;;;;;;;8.10;4.90;;;;;;;;;;105373;1291;22471;-28
2022/10/31 07:27:25;;;;;;;;;;;;;;;;;;105351;1292;24341;-28
2022/10/31 07:29:57;;;;;;;7.90;5.00;;;;;;;;;;105368;1300;22433;-28
2022/10/31 07:32:30;;;;;;;6.40;5.00;;;;;;;;;;105415;1290;22452;-28
2022/10/31 07:35:02;;;;;;;7.60;4.60;;;;;;;;;;105386;1298;22469;-28
2022/10/31 07:37:38;;;;;;;8.50;5.20;;;;;;;;;;105339;1285;22502;-28
2022/10/31 07:40:14;;;;;;;10.80;6.30;;;;;;;;;;105386;1300;24088;-28
2022/10/31 07:42:49;;;;;;;13.10;6.90;;;;;;;;;;105410;1291;22494;-28
2022/10/31 07:45:23;;;;;;;8.90;5.70;;;;;;;;;;105371;1301;22480;-28
2022/10/31 07:47:56;;;;;;;8.60;5.90;;;;;;;;;;105322;1291;22499;-28
2022/10/31 07:50:30;;;;;;;;;;;;;;;;;;105848;1271;22467;-29
2022/10/31 07:53:05;;;;;;;10.10;6.20;;;;;;;;;;105426;1283;22487;-30
2022/10/31 07:55:38;;;;;;;10.20;6.20;;;;;;;;;;105394;1298;25201;-29
2022/10/31 07:58:12;;;;;;;10.20;6.30;;;;;;;;;;105200;1290;22481;-29
2022/10/31 08:00:46;;;;;;;12.10;6.20;;;;;;;;;;105293;1304;25304;-31
2022/10/31 08:03:21;;;;;;;9.00;6.40;;;;;;;;;;105276;1293;22485;-29
2022/10/31 08:05:53;;;;;;;9.90;5.80;;;;;;;;;;105284;1301;22484;-29
2022/10/31 08:08:27;;;;;;;9.70;6.00;;;;;;;;;;105336;1285;24827;-30
2022/10/31 08:11:01;;;;;;;9.30;6.20;;;;;;;;;;105366;1292;22479;-29
2022/10/31 08:13:34;;;;;;;10.80;6.50;;;;;;;;;;105359;1298;22500;-30
2022/10/31 08:16:09;;;;;;;10.00;5.70;;;;;;;;;;105386;1287;22625;-30
2022/10/31 08:18:40;;;;;;;9.70;6.20;;;;;;;;;;105237;1300;22478;-29
2022/10/31 08:21:13;;;;;;;9.10;5.80;;;;;;;;;;105255;1287;22473;-29
2022/10/31 08:23:47;;;;;;;8.00;5.70;;;;;;;;;;105278;1284;22485;-29
2022/10/31 08:26:20;;;;;;;9.90;6.20;;;;;;;;;;105276;1292;22482;-28
2022/10/31 08:28:54;;;;;;;9.30;5.70;;;;;;;;;;105319;1301;22485;-29
2022/10/31 08:31:27;;;;;;;9.10;5.70;;;;;;;;;;105350;1292;22504;-29
2022/10/31 08:33:59;;;;;;;9.00;5.90;;;;;;;;;;105402;1292;22493;-29
2022/10/31 08:36:31;;;;;;;8.00;5.50;;;;;;;;;;105333;1304;22474;-29
2022/10/31 08:39:04;;;;;;;9.70;6.00;;;;;;;;;;105339;1297;22553;-29
2022/10/31 08:41:36;;;;;;;9.20;5.80;;;;;;;;;;105346;1299;22478;-29
2022/10/31 08:44:08;;;;;;;9.10;5.60;;;;;;;;;;105325;1298;22642;-29
2022/10/31 08:46:43;;;;;;;9.20;5.40;;;;;;;;;;105381;1297;22474;-30
2022/10/31 08:49:16;;;;;;;9.40;5.80;;;;;;;;;;105483;1289;22474;-30
2022/10/31 08:51:51;;;;;;;8.60;5.40;;;;;;;;;;105511;1298;22489;-29
2022/10/31 08:54:23;;;;;;;8.60;5.70;;;;;;;;;;105550;1305;22471;-29
2022/10/31 08:56:58;;;;;;;8.00;6.00;;;;;;;;;;105551;1289;25364;-29
2022/10/31 08:59:31;;;;;;;8.00;5.70;;;;;;;;;;105484;1282;24231;-30
2022/10/31 09:02:03;;;;;;;8.30;5.70;;;;;;;;;;105531;1299;22468;-29
2022/10/31 09:04:35;;;;;;;7.50;5.50;;;;;;;;;;105525;1298;22457;-29
2022/10/31 09:07:07;;;;;;;8.10;5.50;;;;;;;;;;105515;1291;24232;-30
2022/10/31 09:09:41;;;;;;;8.80;5.80;;;;;;;;;;105546;1285;22494;-28
2022/10/31 09:12:14;;;;;;;9.70;5.60;;;;;;;;;;105501;1298;22489;-27
2022/10/31 09:14:46;;;;;;;8.80;5.70;;;;;;;;;;105499;1294;22518;-27
2022/10/31 09:17:18;;;;;;;8.70;5.70;;;;;;;;;;105498;1291;22468;-28
2022/10/31 09:19:52;;;;;;;8.20;5.90;;;;;;;;;;105480;1275;22444;-28
2022/10/31 09:22:24;;;;;;;8.30;5.20;;;;;;;;;;105499;1298;22515;-27
2022/10/31 09:24:59;;;;;;;8.30;6.10;;;;;;;;;;105506;1282;22485;-28
2022/10/31 09:27:31;;;;;;;7.20;5.50;;;;;;;;;;105579;1304;22511;-31
2022/10/31 09:30:08;;;;;;;8.20;6.20;;;;;;;;;;105525;1291;22648;-31
2022/10/31 09:32:44;;;;;;;8.90;6.10;;;;;;;;;;105556;1290;22510;-33
2022/10/31 09:35:19;;;;;;;11.00;6.20;;;;;;;;;;105572;1288;22475;-33
2022/10/31 09:38:01;;;;;;;7.40;6.00;;;;;;;;;;105521;1291;22473;-33
2022/10/31 09:40:39;;;;;;;9.30;6.30;;;;;;;;;;105650;1292;22499;-31
2022/10/31 09:43:22;;;;;;;8.80;6.70;;;;;;;;;;105518;1297;22633;-28
2022/10/31 09:46:05;;;;;;;9.20;6.70;;;;;;;;;;105534;1298;22413;-27
2022/10/31 09:49:01;;;;;;;8.20;6.00;;;;;;;;;;105445;1292;22482;-28
2022/10/31 09:51:37;;;;;;;8.40;6.20;;;;;;;;;;105522;1298;24192;-27
2022/10/31 09:54:19;;;;;;;7.70;6.10;;;;;;;;;;105503;1287;22485;-27
2022/10/31 09:56:52;;;;;;;9.00;6.30;;;;;;;;;;105511;1292;25905;-26
2022/10/31 09:59:31;;;;;;;8.80;5.90;;;;;;;;;;105469;1282;22491;-26
2022/10/31 10:02:11;;;;;;;8.00;6.40;;;;;;;;;;105520;1292;22465;-29
2022/10/31 10:04:52;;;;;;;7.90;6.20;;;;;;;;;;105526;1292;22490;-29
2022/10/31 10:07:34;;;;;;;8.20;6.20;;;;;;;;;;105518;1288;23006;-29
2022/10/31 10:10:22;;;;;;;7.70;6.20;;;;;;;;;;105495;1276;22643;-31
2022/10/31 10:13:12;;;;;;;8.90;6.20;;;;;;;;;;105546;1283;22585;-31
2022/10/31 10:16:13;;;;;;;8.30;5.70;;;;;;;;;;105544;1283;22559;-31
2022/10/31 10:19:01;;;;;;;9.50;6.20;;;;;;;;;;105554;1297;22495;-31
2022/10/31 10:21:49;;;;;;;7.70;6.40;;;;;;;;;;105512;1292;22481;-31
2022/10/31 10:24:47;;;;;;;7.70;6.20;;;;;;;;;;105527;1290;22480;-31
2022/10/31 10:27:28;;;;;;;8.50;6.10;;;;;;;;;;105498;1292;23072;-27
2022/10/31 10:30:06;;;;;;;9.10;6.40;;;;;;;;;;105446;1292;22502;-27
2022/10/31 10:32:48;;;;;;;9.60;6.20;;;;;;;;;;105477;1282;22514;-28
2022/10/31 10:35:30;;;;;;;9.20;6.40;;;;;;;;;;105524;1285;22527;-27
2022/10/31 10:38:15;;;;;;;8.20;6.30;;;;;;;;;;105504;1297;22485;-27
2022/10/31 10:40:48;;;;;;;8.30;6.60;;;;;;;;;;105450;1298;22478;-27
2022/10/31 10:43:34;;;;;;;8.30;6.70;;;;;;;;;;105498;1285;22698;-27
2022/10/31 10:49:20;;;;;;;7.90;6.40;;;;;;;;;;105548;1291;22842;-27
2022/10/31 10:52:00;;;;;;;8.90;6.20;;;;;;;;;;105485;1284;24388;-27
2022/10/31 10:54:50;;;;;;;8.70;6.20;;;;;;;;;;105533;1297;22487;-27
2022/10/31 10:57:36;;;;;;;8.40;6.00;;;;;;;;;;105563;1291;22908;-27
2022/10/31 11:00:21;;;;;;;8.10;6.20;;;;;;;;;;105454;1284;22478;-27
2022/10/31 11:02:55;;;;;;;8.30;6.20;;;;;;;;;;105396;1297;22606;-28
2022/10/31 11:05:36;;;;;;;;;;;;;;;;;;105412;1300;22449;-28
2022/10/31 11:08:10;;;;;;;8.30;6.40;;;;;;;;;;105378;1298;22943;-27
2022/10/31 11:10:43;;;;;;;8.60;6.70;;;;;;;;;;105406;1297;22491;-30
2022/10/31 11:13:26;;;;;;;8.60;6.80;;;;;;;;;;105485;1284;23868;-27
2022/10/31 11:16:03;;;;;;;9.40;6.50;;;;;;;;;;105512;1298;25275;-28
2022/10/31 11:18:43;;;;;;;8.00;6.20;;;;;;;;;;105516;1292;23518;-27
2022/10/31 11:21:28;;;;;;;9.00;6.10;;;;;;;;;;105403;1294;22494;-27
2022/10/31 11:24:16;;;;;;;10.00;6.90;;;;;;;;;;105384;1285;22423;-27
2022/10/31 11:26:51;;;;;;;8.40;6.40;;;;;;;;;;105374;1298;22485;-27
2022/10/31 11:29:27;;;;;;;10.10;6.70;;;;;;;;;;105388;1284;22530;-28
2022/10/31 11:32:02;;;;;;;8.60;6.50;;;;;;;;;;105441;1298;22471;-27
2022/10/31 11:34:38;;;;;;;8.60;6.50;;;;;;;;;;105527;1292;22478;-27
2022/10/31 11:37:18;;;;;;;9.30;6.80;;;;;;;;;;105475;1276;22496;-27
2022/10/31 11:39:55;;;;;;;8.80;6.60;;;;;;;;;;105403;1283;22499;-27
2022/10/31 11:42:37;;;;;;;9.30;7.00;;;;;;;;;;105371;1284;22467;-27
2022/10/31 11:45:20;;;;;;;8.30;7.00;;;;;;;;;;104130;1294;22535;-27
2022/10/31 11:47:55;;;;;;;10.00;7.90;;;;;;;;;;105339;1286;22605;-27
2022/10/31 11:50:34;;;;;;;11.10;9.70;;;;;;;;;;105402;1291;22482;-28
2022/10/31 11:53:15;;;;;;;13.70;10.10;;;;;;;;;;105477;1282;22463;-28
2022/10/31 11:55:49;;;;;;;11.50;10.30;;;;;;;;;;105540;1284;22759;-28
2022/10/31 11:58:28;;;;;;;13.10;10.50;;;;;;;;;;105515;1275;22485;-28
2022/10/31 12:01:01;;;;;;;13.10;10.40;;;;;;;;;;105523;1297;22478;-29
2022/10/31 12:03:59;;;;;;;12.80;11.40;;;;;;;;;;105496;1291;22478;-28
2022/10/31 12:06:37;;;;;;;14.30;12.60;;;;;;;;;;105533;1291;22626;-29
2022/10/31 12:09:23;;;;;;;12.70;10.90;;;;;;;;;;105559;1290;22494;-29
2022/10/31 12:12:31;;;;;;;12.70;11.20;;;;;;;;;;105466;1290;22499;-29
2022/10/31 12:15:33;;;;;;;13.30;11.80;;;;;;;;;;105529;1291;22488;-28
2022/10/31 12:18:36;;;;;;;13.70;12.20;;;;;;;;;;105517;1291;22474;-28
2022/10/31 12:21:25;;;;;;;13.00;10.70;;;;;;;;;;105451;1297;22515;-29
2022/10/31 12:24:12;;;;;;;12.70;11.40;;;;;;;;;;105463;1287;22937;-29
2022/10/31 12:26:52;;;;;;;12.10;10.90;;;;;;;;;;105511;1292;22478;-29
2022/10/31 12:29:47;;;;;;;12.60;11.10;;;;;;;;;;105545;1297;22481;-28
2022/10/31 12:32:33;;;;;;;12.20;10.90;;;;;;;;;;105484;1300;22490;-28
2022/10/31 12:35:43;;;;;;;13.40;11.50;;;;;;;;;;105521;1289;22475;-29
2022/10/31 12:38:53;;;;;;;13.70;12.20;;;;;;;;;;105532;1291;22465;-29
2022/10/31 12:41:47;;;;;;;14.50;12.70;;;;;;;;;;105519;1300;22492;-29
2022/10/31 12:44:49;;;;;;;13.30;11.90;;;;;;;;;;105464;1301;24231;-28
2022/10/31 12:47:44;;;;;;;13.30;11.90;;;;;;;;;;105519;1292;23793;-28
2022/10/31 12:50:40;;;;;;;13.10;11.70;;;;;;;;;;105526;1298;22481;-28
2022/10/31 12:53:31;;;;;;;14.00;12.40;;;;;;;;;;105443;1285;22633;-29
2022/10/31 12:56:22;;;;;;;12.50;11.10;;;;;;;;;;105505;1291;24200;-29
2022/10/31 12:59:02;;;;;;;13.00;11.50;;;;;;;;;;105486;1292;22485;-28
2022/10/31 13:01:41;;;;;;;12.60;11.30;;;;;;;;;;105537;1293;22469;-28
2022/10/31 13:04:22;;;;;;;13.40;11.90;;;;;;;;;;105470;1298;22475;-29
2022/10/31 13:06:59;;;;;;;13.30;11.80;;;;;;;;;;105532;1276;22471;-28
2022/10/31 13:09:38;;;;;;;13.20;11.70;;;;;;;;;;105523;1298;22909;-29
2022/10/31 13:12:16;;;;;;;14.40;12.40;;;;;;;;;;105498;1292;22476;-29
2022/10/31 13:14:53;;;;;;;14.40;12.90;;;;;;;;;;105463;1296;22601;-29
2022/10/31 13:17:31;;;;;;;13.80;12.40;;;;;;;;;;105552;1294;25386;-29
2022/10/31 13:20:18;;;;;;;13.80;12.30;;;;;;;;;;105505;1292;25285;-29
2022/10/31 13:22:57;;;;;;;14.10;12.50;;;;;;;;;;105517;1290;25205;-29
2022/10/31 13:25:34;;;;;;;14.70;12.40;;;;;;;;;;105482;1287;23880;-28
2022/10/31 13:28:18;;;;;;;13.60;12.20;;;;;;;;;;105490;1292;22465;-29
2022/10/31 13:30:54;;;;;;;13.60;12.10;;;;;;;;;;105512;1299;22487;-29
2022/10/31 13:33:32;;;;;;;13.70;12.20;;;;;;;;;;105485;1297;22566;-28
2022/10/31 13:36:29;;;;;;;14.10;12.60;;;;;;;;;;105531;1291;22597;-29
2022/10/31 13:39:09;;;;;;;13.60;12.20;;;;;;;;;;105523;1292;22441;-29
2022/10/31 13:41:49;;;;;;;14.70;13.00;;;;;;;;;;105512;1290;22505;-29
2022/10/31 13:44:24;;;;;;;13.70;12.30;;;;;;;;;;105460;1300;22464;-29
2022/10/31 13:46:58;;;;;;;14.20;12.70;;;;;;;;;;105507;1303;22482;-28
2022/10/31 13:49:44;;;;;;;14.90;13.30;;;;;;;;;;105514;1297;22491;-29
2022/10/31 13:52:26;;;;;;;14.40;12.40;;;;;;;;;;105326;1294;22489;-29
2022/10/31 13:54:58;;;;;;;14.20;12.70;;;;;;;;;;105358;1292;22477;-29
2022/10/31 13:57:47;;;;;;;13.30;11.90;;;;;;;;;;105370;1298;22723;-29
2022/10/31 14:00:29;;;;;;;14.10;12.60;;;;;;;;;;105397;1297;22939;-28
2022/10/31 14:03:01;;;;;;;14.20;12.70;;;;;;;;;;105372;1291;22485;-28
2022/10/31 14:05:35;;;;;;;13.30;11.90;;;;;;;;;;105301;1301;22482;-28
2022/10/31 14:08:19;;;;;;;13.80;12.20;;;;;;;;;;105356;1300;22473;-28
2022/10/31 14:10:54;;;;;;;13.90;12.50;;;;;;;;;;105368;1297;25205;-29
2022/10/31 14:13:32;;;;;;;14.00;12.30;;;;;;;;;;105332;1285;22509;-28
2022/10/31 14:16:16;;;;;;;14.20;12.70;;;;;;;;;;105322;1282;22446;-28
2022/10/31 14:18:58;;;;;;;14.80;12.70;;;;;;;;;;105353;1292;24235;-29
2022/10/31 14:21:39;;;;;;;14.10;12.70;;;;;;;;;;105377;1300;22483;-28
2022/10/31 14:24:36;;;;;;;14.80;13.20;;;;;;;;;;105323;1295;23908;-29
2022/10/31 14:27:47;;;;;;;14.30;12.80;;;;;;;;;;105297;1292;22507;-28
2022/10/31 14:30:27;;;;;;;13.60;12.10;;;;;;;;;;105340;1299;25395;-29
2022/10/31 14:33:03;;;;;;;14.70;12.60;;;;;;;;;;105332;1287;25381;-29
2022/10/31 14:35:52;;;;;;;14.30;12.80;;;;;;;;;;105327;1293;22478;-29
2022/10/31 14:38:48;;;;;;;14.20;12.70;;;;;;;;;;105369;1300;22564;-29
2022/10/31 14:41:48;;;;;;;13.60;12.10;;;;;;;;;;105380;1297;23679;-29
2022/10/31 14:44:46;;;;;;;14.20;12.80;;;;;;;;;;105398;1292;22477;-29
2022/10/31 14:47:32;;;;;;;13.20;11.80;;;;;;;;;;105309;1304;24228;-29
2022/10/31 14:50:36;;;;;;;13.70;12.30;;;;;;;;;;105338;1292;22574;-29
2022/10/31 14:53:15;;;;;;;14.40;12.30;;;;;;;;;;105466;1297;23688;-29
2022/10/31 14:55:55;;;;;;;13.90;12.40;;;;;;;;;;105522;1288;23869;-29
2022/10/31 14:58:38;;;;;;;14.10;12.60;;;;;;;;;;105515;1285;22737;-28
2022/10/31 15:01:22;;;;;;;13.90;12.30;;;;;;;;;;105509;1303;22679;-29
2022/10/31 15:03:56;;;;;;;14.40;12.50;;;;;;;;;;105515;1292;22475;-29
2022/10/31 15:06:37;;;;;;;13.70;12.30;;;;;;;;;;105481;1291;22429;-29
2022/10/31 15:09:25;;;;;;;13.40;12.00;;;;;;;;;;105509;1285;22414;-29
2022/10/31 15:11:57;;;;;;;13.70;12.20;;;;;;;;;;105520;1295;22463;-29
2022/10/31 15:14:32;;;;;;;13.50;12.10;;;;;;;;;;105484;1288;22495;-29
2022/10/31 15:17:06;;;;;;;14.00;12.50;;;;;;;;;;105482;1275;22705;-29
2022/10/31 15:19:39;;;;;;;14.70;12.70;;;;;;;;;;105571;1282;22502;-29
2022/10/31 15:22:20;;;;;;;13.90;12.30;;;;;;;;;;105502;1297;22571;-29
2022/10/31 15:24:56;;;;;;;13.60;12.10;;;;;;;;;;105484;1297;25272;-29
2022/10/31 15:27:29;;;;;;;14.50;12.60;;;;;;;;;;105423;1285;22491;-28
2022/10/31 15:30:02;;;;;;;14.50;12.90;;;;;;;;;;105493;1291;22477;-29